createdAt,value
2019-06-10T00:01:11.969Z,3.17
2019-06-10T00:06:15.501Z,2.30
2019-06-10T00:11:21.302Z,2.72
2019-06-10T00:16:24.509Z,2.92
2019-06-10T00:21:30.659Z,2.92
2019-06-10T00:26:33.495Z,3.05
2019-06-10T00:31:37.423Z,3.08
2019-06-10T00:36:41.461Z,2.77
2019-06-10T00:41:45.095Z,2.80
2019-06-10T00:46:48.727Z,2.62
2019-06-10T00:51:53.523Z,3.30
2019-06-10T00:56:57.257Z,3.25
2019-06-10T01:02:01.689Z,3.67
2019-06-10T01:07:06.521Z,3.05
2019-06-10T01:12:13.108Z,3.12
2019-06-10T01:17:15.836Z,3.00
2019-06-10T01:22:21.323Z,3.40
2019-06-10T01:27:25.213Z,3.30
2019-06-10T01:32:31.045Z,3.42
2019-06-10T01:37:35.782Z,3.45
2019-06-10T01:42:41.247Z,3.60
2019-06-10T01:47:44.851Z,3.50
2019-06-10T01:52:48.564Z,3.80
2019-06-10T01:57:52.289Z,3.33
2019-06-10T02:02:55.919Z,3.37
2019-06-10T02:08:00.607Z,3.50
2019-06-10T02:13:04.452Z,3.20
2019-06-10T02:18:10.469Z,3.05
2019-06-10T02:23:14.430Z,2.90
2019-06-10T02:28:19.710Z,3.08
2019-06-10T02:33:30.595Z,3.17
2019-06-10T02:38:35.562Z,3.77
2019-06-10T02:43:37.513Z,3.08
2019-06-10T02:48:43.642Z,3.08
2019-06-10T02:53:46.490Z,3.55
2019-06-10T02:58:53.262Z,3.58
2019-06-10T03:03:55.590Z,2.50
2019-06-10T03:08:59.322Z,2.85
2019-06-10T03:14:03.288Z,2.98
2019-06-10T03:19:07.018Z,2.58
2019-06-10T03:24:12.990Z,2.85
2019-06-10T03:29:16.512Z,2.47
2019-06-10T03:34:27.635Z,2.60
2019-06-10T03:39:27.354Z,2.95
2019-06-10T03:44:33.029Z,2.75
2019-06-10T03:49:49.174Z,2.83
2019-06-10T03:54:43.272Z,2.30
2019-06-10T03:59:47.146Z,2.92
2019-06-10T04:04:52.333Z,3.02
2019-06-10T04:09:56.254Z,2.50
2019-06-10T04:14:59.939Z,2.77
2019-06-10T04:20:11.599Z,2.98
2019-06-10T04:25:12.174Z,3.08
2019-06-10T04:30:16.523Z,2.52
2019-06-10T04:35:23.060Z,2.75
2019-06-10T04:40:26.661Z,2.62
2019-06-10T04:45:32.364Z,3.40
2019-06-10T04:50:42.771Z,3.35
2019-06-10T04:55:43.069Z,2.83
2019-06-10T05:00:47.128Z,3.22
2019-06-10T05:05:52.606Z,3.33
2019-06-10T05:10:56.120Z,3.27
2019-06-10T05:15:59.716Z,3.12
2019-06-10T05:21:03.426Z,2.92
2019-06-10T05:26:07.215Z,3.35
2019-06-10T05:31:14.673Z,3.40
2019-06-10T05:36:18.341Z,2.55
2019-06-10T05:41:24.871Z,2.90
2019-06-10T05:46:30.233Z,3.30
2019-06-10T05:51:35.404Z,3.30
2019-06-10T05:57:03.522Z,3.22
2019-06-10T06:02:08.951Z,3.33
2019-06-10T06:07:14.342Z,3.37
2019-06-10T06:12:18.022Z,3.22
2019-06-10T06:17:25.845Z,3.33
2019-06-10T06:22:32.733Z,3.67
2019-06-10T06:27:38.643Z,3.55
2019-06-10T06:32:43.543Z,3.50
2019-06-10T06:37:47.705Z,3.77
2019-06-10T06:42:53.223Z,3.70
2019-06-10T06:48:00.073Z,3.02
2019-06-10T06:53:21.335Z,3.80
2019-06-10T06:58:09.208Z,3.40
2019-06-10T07:03:15.980Z,3.60
2019-06-10T07:08:26.849Z,3.35
2019-06-10T07:13:37.429Z,3.75
2019-06-10T07:18:46.582Z,3.90
2019-06-10T07:23:48.207Z,4.20
2019-06-10T07:28:54.057Z,3.98
2019-06-10T07:34:02.634Z,4.30
2019-06-10T07:39:07.657Z,3.92
2019-06-10T07:44:14.015Z,4.55
2019-06-10T07:49:19.460Z,3.90
2019-06-10T07:54:23.246Z,4.72
2019-06-10T07:59:28.532Z,4.50
2019-06-10T08:04:33.564Z,4.33
2019-06-10T08:09:37.419Z,4.60
2019-06-10T08:14:42.749Z,4.42
2019-06-10T08:19:50.576Z,4.35
2019-06-10T08:24:52.380Z,4.10
2019-06-10T08:30:14.080Z,5.12
2019-06-10T08:35:02.778Z,4.78
2019-06-10T08:40:08.205Z,5.08
2019-06-10T08:45:12.516Z,5.05
2019-06-10T08:50:16.598Z,5.33
2019-06-10T08:55:22.503Z,5.25
2019-06-10T09:00:27.177Z,5.55
2019-06-10T09:05:32.441Z,5.78
2019-06-10T09:10:36.314Z,5.42
2019-06-10T09:15:41.445Z,5.17
2019-06-10T09:20:52.382Z,5.60
2019-06-10T09:25:57.287Z,5.33
2019-06-10T09:31:04.336Z,5.28
2019-06-10T09:36:08.612Z,5.83
2019-06-10T09:41:14.332Z,5.28
2019-06-10T09:46:19.467Z,5.72
2019-06-10T09:51:23.146Z,5.78
2019-06-10T09:56:26.883Z,6.75
2019-06-10T10:01:32.640Z,5.97
2019-06-10T10:06:36.263Z,6.15
2019-06-10T10:11:44.119Z,5.35
2019-06-10T10:16:50.834Z,5.62
2019-06-10T10:21:56.051Z,6.05
2019-06-10T10:26:58.723Z,6.30
2019-06-10T10:32:02.701Z,6.10
2019-06-10T10:37:06.782Z,6.37
2019-06-10T10:42:12.489Z,5.08
2019-06-10T10:47:15.758Z,6.72
2019-06-10T10:52:19.365Z,5.22
2019-06-10T10:57:23.255Z,5.10
2019-06-10T11:02:26.962Z,5.58
2019-06-10T11:07:33.315Z,4.55
2019-06-10T11:12:35.927Z,5.30
2019-06-10T11:17:39.449Z,5.55
2019-06-10T11:22:43.353Z,4.65
2019-06-10T11:27:47.980Z,4.90
2019-06-10T11:32:55.846Z,6.00
2019-06-10T11:37:58.190Z,5.60
2019-06-10T11:43:01.943Z,5.60
2019-06-10T11:48:05.619Z,5.42
2019-06-10T11:53:12.609Z,5.30
2019-06-10T11:58:15.029Z,5.62
2019-06-10T12:03:18.671Z,6.10
2019-06-10T12:08:23.736Z,6.40
2019-06-10T12:13:27.777Z,6.08
2019-06-10T12:18:33.283Z,5.75
2019-06-10T12:23:36.555Z,6.28
2019-06-10T12:28:42.824Z,8.58
2019-06-10T12:33:45.349Z,7.30
2019-06-10T12:38:48.923Z,6.78
2019-06-10T12:43:53.557Z,5.78
2019-06-10T12:49:02.080Z,5.47
2019-06-10T12:54:06.409Z,6.62
2019-06-10T12:59:13.572Z,7.25
2019-06-10T13:04:16.916Z,5.60
2019-06-10T13:09:20.439Z,5.97
2019-06-10T13:14:23.962Z,4.97
2019-06-10T13:19:27.467Z,3.42
2019-06-10T13:24:33.636Z,3.58
2019-06-10T13:29:36.553Z,3.98
2019-06-10T13:34:42.204Z,3.90
2019-06-10T13:39:45.422Z,5.12
2019-06-10T13:44:48.992Z,4.80
2019-06-10T13:49:53.201Z,4.70
2019-06-10T13:54:58.628Z,4.90
2019-06-10T14:00:05.482Z,4.80
2019-06-10T14:05:12.618Z,4.70
2019-06-10T14:10:18.107Z,6.15
2019-06-10T14:15:22.413Z,4.78
2019-06-10T14:20:25.276Z,4.70
2019-06-10T14:25:29.085Z,5.17
2019-06-10T14:30:32.679Z,6.03
2019-06-10T14:35:36.302Z,5.37
2019-06-10T14:40:39.982Z,6.80
2019-06-10T14:45:43.753Z,6.70
2019-06-10T14:50:47.733Z,7.87
2019-06-10T15:12:52.855Z,9.38
2019-06-10T19:55:28.146Z,4.55
